Time;durP1;ratioP1;P1;durP2;ratioP2;P2;SDS_P1;SDS_P2;PMS_P1;PMS_P2;Temp;Humidity;BMP_temperature;BMP_pressure;BME280_temperature;BME280_humidity;BME280_pressure;Samples;Min_cycle;Max_cycle;Signal;HPM_P1;HPM_P2
2021/05/15 00:01:25;;;;;;;4.20;3.17;;;19.20;65.30;;;;;;5050317;28;20028;-73
2021/05/15 00:03:51;;;;;;;5.07;3.75;;;19.20;65.20;;;;;;5050598;28;20481;-72
2021/05/15 00:06:17;;;;;;;3.65;2.92;;;19.20;65.20;;;;;;5049471;28;20048;-73
2021/05/15 00:08:43;;;;;;;4.38;3.20;;;19.10;65.10;;;;;;5050192;28;20531;-72
2021/05/15 00:11:08;;;;;;;4.70;3.20;;;19.10;65.10;;;;;;5049926;28;20436;-71
2021/05/15 00:13:34;;;;;;;5.35;3.65;;;19.10;65.80;;;;;;5050257;28;20081;-82
2021/05/15 00:16:00;;;;;;;4.00;3.35;;;19.10;65.00;;;;;;5050089;28;20025;-84
2021/05/15 00:18:25;;;;;;;5.15;3.20;;;19.10;64.90;;;;;;5049779;28;20035;-82
2021/05/15 00:20:51;;;;;;;4.30;3.55;;;19.10;64.90;;;;;;5050363;28;20032;-82
2021/05/15 00:23:17;;;;;;;4.55;2.92;;;19.10;64.80;;;;;;5052428;28;20420;-74
2021/05/15 00:25:42;;;;;;;5.63;3.50;;;19.00;64.70;;;;;;5054262;28;20021;-82
2021/05/15 00:28:08;;;;;;;4.15;3.33;;;19.00;64.60;;;;;;5053273;28;20036;-82
2021/05/15 00:30:34;;;;;;;4.63;3.10;;;19.00;64.60;;;;;;5053748;28;20071;-82
2021/05/15 00:32:59;;;;;;;3.72;3.25;;;19.00;64.60;;;;;;5053772;28;20489;-83
2021/05/15 00:35:25;;;;;;;4.63;3.20;;;19.00;64.50;;;;;;5053216;28;20033;-83
2021/05/15 00:37:51;;;;;;;4.68;2.97;;;18.90;64.40;;;;;;5054003;28;20021;-84
2021/05/15 00:40:17;;;;;;;3.70;2.78;;;18.90;64.40;;;;;;5053674;28;20029;-82
2021/05/15 00:42:43;;;;;;;3.47;3.10;;;18.90;64.40;;;;;;5053658;28;20025;-82
2021/05/15 00:45:13;;;;;;;4.60;3.17;;;18.90;64.20;;;;;;5052732;28;20114;-82
2021/05/15 00:47:39;;;;;;;3.67;2.97;;;18.90;64.20;;;;;;5053216;28;20503;-80
2021/05/15 00:50:06;;;;;;;3.78;2.92;;;18.90;64.10;;;;;;5052753;28;20033;-82
2021/05/15 00:52:36;;;;;;;4.85;3.20;;;18.90;64.10;;;;;;5053482;28;20025;-82
2021/05/15 00:55:12;;;;;;;3.72;2.83;;;18.90;64.10;;;;;;5052119;28;20108;-80
2021/05/15 00:57:40;;;;;;;3.83;3.17;;;18.80;63.90;;;;;;5052016;28;20399;-81
2021/05/15 01:00:14;;;;;;;4.03;3.05;;;18.80;63.90;;;;;;5053409;28;20378;-80
2021/05/15 01:02:40;;;;;;;4.18;2.90;;;18.80;64.00;;;;;;5052276;28;20394;-82
2021/05/15 01:05:10;;;;;;;3.80;2.65;;;18.80;63.90;;;;;;5052459;28;20068;-79
2021/05/15 01:07:36;;;;;;;3.78;3.08;;;18.80;63.90;;;;;;5052269;28;20025;-81
2021/05/15 01:10:04;;;;;;;4.35;3.10;;;18.80;63.90;;;;;;5052353;28;20029;-81
2021/05/15 01:12:30;;;;;;;4.10;3.25;;;18.80;63.90;;;;;;5048164;28;20029;-82
2021/05/15 01:14:57;;;;;;;4.97;2.83;;;18.80;63.80;;;;;;5052944;28;20066;-82
2021/05/15 01:17:22;;;;;;;3.30;2.47;;;18.80;63.90;;;;;;5052831;28;20017;-80
2021/05/15 01:19:48;;;;;;;5.32;3.25;;;18.70;63.70;;;;;;5052348;28;20067;-82
2021/05/15 01:22:15;;;;;;;4.57;3.00;;;18.70;63.60;;;;;;5053273;28;20032;-82
2021/05/15 01:24:44;;;;;;;4.07;3.03;;;18.70;63.50;;;;;;5052163;28;20046;-82
2021/05/15 01:27:13;;;;;;;5.22;3.13;;;18.70;63.60;;;;;;5052395;28;20103;-81
2021/05/15 01:29:40;;;;;;;3.63;3.17;;;18.70;63.60;;;;;;5050789;28;20056;-81
2021/05/15 01:32:08;;;;;;;4.13;2.97;;;18.70;63.50;;;;;;5052191;28;20036;-82
2021/05/15 01:34:34;;;;;;;3.75;2.85;;;18.70;63.40;;;;;;5051988;28;20036;-81
2021/05/15 01:36:59;;;;;;;4.03;3.17;;;18.70;63.40;;;;;;5052501;28;20066;-81
2021/05/15 01:39:25;;;;;;;3.67;2.92;;;18.60;63.30;;;;;;5052541;28;20040;-81
2021/05/15 01:41:51;;;;;;;3.45;2.65;;;18.60;63.30;;;;;;5052249;28;20031;-81
2021/05/15 01:44:17;;;;;;;3.85;2.72;;;18.70;63.40;;;;;;5051554;28;20044;-77
2021/05/15 01:46:44;;;;;;;4.03;3.25;;;18.60;63.30;;;;;;5051450;28;20021;-77
2021/05/15 01:49:10;;;;;;;3.83;2.75;;;18.60;63.40;;;;;;5051869;28;20467;-79
2021/05/15 01:51:35;;;;;;;5.15;3.20;;;18.60;63.40;;;;;;5052006;28;20017;-82
2021/05/15 01:54:01;;;;;;;3.67;2.75;;;18.60;63.40;;;;;;5052412;28;20025;-78
2021/05/15 01:56:29;;;;;;;3.78;2.70;;;18.60;63.40;;;;;;5052391;28;20163;-78
2021/05/15 01:58:55;;;;;;;4.15;2.70;;;18.60;63.30;;;;;;5052082;28;20032;-80
2021/05/15 02:01:23;;;;;;;3.72;2.65;;;18.60;63.40;;;;;;5051649;28;20033;-75
2021/05/15 02:03:49;;;;;;;4.22;2.67;;;18.60;63.40;;;;;;5051610;28;20037;-72
2021/05/15 02:06:15;;;;;;;3.65;2.58;;;18.50;63.30;;;;;;5051696;28;20401;-72
2021/05/15 02:08:42;;;;;;;4.68;2.85;;;18.50;63.40;;;;;;5051836;28;20102;-76
2021/05/15 02:11:09;;;;;;;3.28;2.70;;;18.50;63.30;;;;;;5051720;28;20115;-76
2021/05/15 02:13:34;;;;;;;3.90;2.80;;;18.50;64.00;;;;;;5051888;28;20029;-73
2021/05/15 02:16:01;;;;;;;3.53;2.50;;;18.50;63.30;;;;;;5051929;28;20021;-75
2021/05/15 02:18:27;;;;;;;3.38;2.67;;;18.50;64.10;;;;;;5051589;28;20013;-73
2021/05/15 02:20:54;;;;;;;3.42;2.72;;;18.50;63.40;;;;;;5051056;28;20063;-72
2021/05/15 02:23:20;;;;;;;3.63;2.83;;;18.50;63.40;;;;;;5050903;28;20029;-74
2021/05/15 02:25:47;;;;;;;3.88;3.00;;;18.50;63.30;;;;;;5051909;28;20084;-72
2021/05/15 02:28:16;;;;;;;3.35;2.38;;;18.50;63.30;;;;;;5051634;28;20044;-75
2021/05/15 02:30:43;;;;;;;4.05;2.97;;;18.50;63.40;;;;;;5051444;28;20447;-78
2021/05/15 02:33:10;;;;;;;5.25;3.40;;;18.50;63.40;;;;;;5051797;28;20425;-75
2021/05/15 02:35:35;;;;;;;5.05;3.75;;;18.40;63.30;;;;;;5050008;28;20048;-71
2021/05/15 02:38:02;;;;;;;5.03;2.95;;;18.50;63.40;;;;;;5051275;28;20056;-81
2021/05/15 02:40:28;;;;;;;3.97;3.17;;;18.40;63.30;;;;;;5049314;28;20036;-81
2021/05/15 02:42:54;;;;;;;4.43;3.17;;;18.40;63.20;;;;;;5050983;28;20043;-79
2021/05/15 02:45:22;;;;;;;4.00;2.65;;;18.40;63.20;;;;;;5048880;28;20053;-81
2021/05/15 02:47:50;;;;;;;4.07;2.78;;;18.40;63.20;;;;;;5050224;28;20393;-84
2021/05/15 02:50:17;;;;;;;4.22;3.20;;;18.40;63.20;;;;;;5051040;28;20033;-83
2021/05/15 02:52:43;;;;;;;4.10;3.10;;;18.40;63.20;;;;;;5051681;28;20594;-84
2021/05/15 02:55:11;;;;;;;4.47;3.28;;;18.40;63.20;;;;;;5050578;28;20431;-83
2021/05/15 02:57:38;;;;;;;5.80;3.03;;;18.40;63.20;;;;;;5051255;28;20495;-83
2021/05/15 03:00:06;;;;;;;4.22;3.60;;;18.40;63.20;;;;;;5051328;28;20075;-71
2021/05/15 03:02:32;;;;;;;5.32;3.60;;;18.40;63.20;;;;;;5050801;28;20021;-71
2021/05/15 03:04:57;;;;;;;4.18;3.40;;;18.30;63.20;;;;;;5050723;28;20183;-80
2021/05/15 03:07:23;;;;;;;4.20;3.28;;;18.30;63.20;;;;;;5050218;28;20040;-80
2021/05/15 03:09:50;;;;;;;4.80;3.15;;;18.30;63.10;;;;;;5049359;28;20029;-83
2021/05/15 03:12:15;;;;;;;4.75;3.95;;;18.30;63.20;;;;;;5050052;28;20099;-84
2021/05/15 03:14:42;;;;;;;5.03;3.40;;;18.30;63.20;;;;;;5050896;28;20071;-86
2021/05/15 03:17:09;;;;;;;4.50;3.63;;;18.30;63.20;;;;;;5049653;28;20036;-86
2021/05/15 03:19:35;;;;;;;5.35;4.03;;;18.30;63.20;;;;;;5049811;28;20112;-83
2021/05/15 03:22:00;;;;;;;5.15;3.58;;;18.30;63.20;;;;;;5050392;28;20096;-78
2021/05/15 03:24:26;;;;;;;4.78;3.58;;;18.30;63.20;;;;;;5050323;28;20033;-75
2021/05/15 03:26:51;;;;;;;4.55;3.65;;;18.30;63.20;;;;;;5051327;28;20017;-82
2021/05/15 03:29:17;;;;;;;5.10;4.07;;;18.30;63.20;;;;;;5050557;28;20025;-73
2021/05/15 03:31:43;;;;;;;4.22;3.40;;;18.30;63.20;;;;;;5050464;28;20024;-74
2021/05/15 03:34:08;;;;;;;5.45;3.80;;;18.30;63.10;;;;;;5050163;28;20036;-82
2021/05/15 03:36:35;;;;;;;6.70;4.00;;;18.20;63.10;;;;;;5050350;28;20029;-84
2021/05/15 03:39:04;;;;;;;4.10;3.47;;;18.20;63.10;;;;;;5050775;28;20040;-82
2021/05/15 03:41:30;;;;;;;6.78;3.90;;;18.30;63.20;;;;;;5050353;28;20060;-80
2021/05/15 03:43:56;;;;;;;5.05;3.47;;;18.20;63.10;;;;;;5049737;28;20492;-75
2021/05/15 03:46:21;;;;;;;6.38;4.00;;;18.20;63.10;;;;;;5050097;28;20025;-77
2021/05/15 03:48:47;;;;;;;5.30;3.90;;;18.20;63.10;;;;;;5050201;28;20021;-78
2021/05/15 03:51:13;;;;;;;4.65;3.67;;;18.20;63.10;;;;;;5050765;28;20067;-80
2021/05/15 03:53:38;;;;;;;4.95;3.65;;;18.20;63.10;;;;;;5050356;28;20507;-79
2021/05/15 03:56:04;;;;;;;5.30;4.13;;;18.20;63.10;;;;;;5050358;28;20032;-78
2021/05/15 03:58:30;;;;;;;4.78;3.72;;;18.20;63.10;;;;;;5053486;28;20504;-72
2021/05/15 04:00:55;;;;;;;4.60;3.50;;;18.20;63.10;;;;;;5052341;28;20423;-85
2021/05/15 04:03:21;;;;;;;6.70;4.18;;;18.20;63.10;;;;;;5053864;28;20033;-81
2021/05/15 04:05:47;;;;;;;4.80;3.85;;;18.20;63.90;;;;;;5053799;28;20029;-75
2021/05/15 04:08:12;;;;;;;6.50;3.90;;;18.20;63.20;;;;;;5054434;28;20116;-82
2021/05/15 04:10:38;;;;;;;6.35;4.18;;;18.20;64.00;;;;;;5053832;28;20424;-82
2021/05/15 04:13:29;;;;;;;6.03;4.20;;;18.10;63.20;;;;;;5054273;28;20021;-85
2021/05/15 04:15:59;;;;;;;6.13;4.38;;;18.10;63.20;;;;;;5052649;28;20057;-81
2021/05/15 04:18:28;;;;;;;5.93;4.05;;;18.20;63.20;;;;;;5053946;28;20013;-82
2021/05/15 04:20:55;;;;;;;5.45;4.25;;;18.10;63.10;;;;;;5052349;28;20029;-78
2021/05/15 04:23:21;;;;;;;5.45;4.18;;;18.10;63.10;;;;;;5052325;28;20053;-83
2021/05/15 04:25:47;;;;;;;5.45;4.38;;;18.10;63.10;;;;;;5054845;28;20024;-74
2021/05/15 04:28:13;;;;;;;6.05;4.30;;;18.10;63.10;;;;;;5054575;28;20472;-79
2021/05/15 04:30:39;;;;;;;4.72;3.88;;;18.10;63.10;;;;;;5051978;28;20507;-80
2021/05/15 04:33:05;;;;;;;6.10;3.80;;;18.10;63.10;;;;;;5053628;28;20025;-75
2021/05/15 04:35:32;;;;;;;6.38;4.55;;;18.10;63.10;;;;;;5052874;28;20067;-74
2021/05/15 04:37:59;;;;;;;7.10;4.80;;;18.10;63.10;;;;;;5054569;28;20492;-78
2021/05/15 04:40:25;;;;;;;6.13;4.78;;;18.10;63.10;;;;;;5053606;28;20035;-77
2021/05/15 04:42:51;;;;;;;7.80;5.05;;;18.10;63.10;;;;;;5053275;28;20021;-74
2021/05/15 04:45:16;;;;;;;6.10;4.75;;;18.10;63.10;;;;;;5053884;28;20123;-80
2021/05/15 04:47:42;;;;;;;6.68;4.85;;;18.00;63.10;;;;;;5052820;28;20095;-79
2021/05/15 04:50:10;;;;;;;6.75;4.80;;;18.10;63.20;;;;;;5053447;28;20052;-78
2021/05/15 04:52:36;;;;;;;9.27;5.40;;;18.10;63.20;;;;;;5053180;28;20013;-85
2021/05/15 04:55:02;;;;;;;7.50;5.20;;;18.00;63.10;;;;;;5053641;28;20086;-73
2021/05/15 04:57:28;;;;;;;5.75;4.97;;;18.00;63.10;;;;;;5052501;28;20040;-74
2021/05/15 04:59:53;;;;;;;6.45;5.00;;;18.10;63.20;;;;;;5051787;28;20029;-84
2021/05/15 05:02:19;;;;;;;7.07;4.80;;;18.00;63.10;;;;;;5052510;28;20033;-85
2021/05/15 05:04:45;;;;;;;6.88;4.80;;;18.00;63.10;;;;;;5053585;28;20037;-85
2021/05/15 05:07:10;;;;;;;7.38;5.18;;;18.00;63.10;;;;;;5053145;28;20112;-83
2021/05/15 05:09:36;;;;;;;7.10;4.82;;;18.00;63.10;;;;;;5051777;28;20493;-83
2021/05/15 05:12:02;;;;;;;7.18;5.25;;;18.00;63.10;;;;;;5053097;28;20028;-82
2021/05/15 05:14:27;;;;;;;5.78;4.63;;;18.00;63.10;;;;;;5052746;28;20025;-83
2021/05/15 05:16:56;;;;;;;6.50;4.75;;;18.00;63.20;;;;;;5052629;28;20029;-82
2021/05/15 05:19:25;;;;;;;6.18;4.43;;;18.00;63.20;;;;;;5052872;28;20036;-81
2021/05/15 05:21:51;;;;;;;7.93;5.55;;;18.00;63.20;;;;;;5051181;28;20048;-79
2021/05/15 05:24:17;;;;;;;6.88;5.25;;;18.00;63.20;;;;;;5052402;28;20434;-78
2021/05/15 05:26:43;;;;;;;6.65;4.85;;;18.00;63.30;;;;;;5053677;28;20025;-87
2021/05/15 05:29:09;;;;;;;7.70;5.43;;;18.00;63.40;;;;;;5053012;28;20024;-88
2021/05/15 05:31:36;;;;;;;6.20;5.32;;;18.00;63.60;;;;;;5053030;28;20021;-86
2021/05/15 05:34:03;;;;;;;8.00;5.28;;;18.00;63.60;;;;;;5053836;28;20025;-88
2021/05/15 05:36:29;;;;;;;6.78;5.38;;;17.90;63.50;;;;;;5052967;28;20029;-86
2021/05/15 05:38:54;;;;;;;6.43;4.80;;;18.00;63.50;;;;;;5052065;28;20021;-88
2021/05/15 05:41:22;;;;;;;7.65;5.30;;;18.00;63.50;;;;;;5052665;28;20495;-88
2021/05/15 05:43:48;;;;;;;7.20;5.18;;;18.00;63.50;;;;;;5052842;28;20397;-86
2021/05/15 05:46:13;;;;;;;8.25;5.95;;;18.00;63.50;;;;;;5053135;28;20023;-86
2021/05/15 05:48:39;;;;;;;8.38;5.43;;;18.00;63.50;;;;;;5052134;28;20033;-85
2021/05/15 05:51:06;;;;;;;8.38;5.68;;;18.00;63.50;;;;;;5052094;28;20033;-85
2021/05/15 05:53:32;;;;;;;8.93;5.80;;;17.90;63.50;;;;;;5052893;28;20040;-84
2021/05/15 05:55:57;;;;;;;6.95;5.22;;;18.00;63.50;;;;;;5052573;28;20037;-86
2021/05/15 05:58:23;;;;;;;7.68;6.05;;;18.00;63.50;;;;;;5052875;28;20096;-87
2021/05/15 06:00:48;;;;;;;6.97;4.85;;;18.00;63.50;;;;;;5052099;28;20021;-85
2021/05/15 06:03:14;;;;;;;8.77;5.72;;;18.00;63.50;;;;;;5052672;28;20036;-86
2021/05/15 06:05:40;;;;;;;8.07;5.38;;;17.90;63.50;;;;;;5051616;28;20028;-84
2021/05/15 06:08:09;;;;;;;8.00;5.70;;;17.90;63.50;;;;;;5051620;28;20037;-86
2021/05/15 06:10:37;;;;;;;8.40;6.20;;;17.90;63.50;;;;;;5051572;28;20404;-87
2021/05/15 06:13:07;;;;;;;9.27;6.18;;;18.00;63.60;;;;;;5052472;28;20041;-85
2021/05/15 06:15:33;;;;;;;10.45;6.30;;;18.00;63.50;;;;;;5050523;28;20025;-87
2021/05/15 06:18:00;;;;;;;10.73;6.57;;;18.00;63.60;;;;;;5051751;28;20052;-82
2021/05/15 06:20:26;;;;;;;9.50;6.60;;;17.90;63.50;;;;;;5050613;28;20025;-83
2021/05/15 06:22:51;;;;;;;9.95;6.43;;;17.90;63.60;;;;;;5051604;28;20082;-76
2021/05/15 06:25:17;;;;;;;13.40;7.55;;;17.90;63.60;;;;;;5050633;28;20032;-73
2021/05/15 06:27:43;;;;;;;12.15;7.07;;;17.90;63.60;;;;;;5051840;28;20029;-84
2021/05/15 06:30:09;;;;;;;13.57;7.93;;;17.90;63.60;;;;;;5050979;28;20032;-83
2021/05/15 06:32:35;;;;;;;11.35;7.43;;;17.90;63.60;;;;;;5051001;28;20048;-85
2021/05/15 06:35:00;;;;;;;14.85;8.43;;;17.90;63.70;;;;;;5051761;28;20465;-85
2021/05/15 06:37:26;;;;;;;11.80;8.10;;;17.90;63.80;;;;;;5051532;28;20100;-83
2021/05/15 06:39:52;;;;;;;16.05;8.55;;;17.90;63.80;;;;;;5052241;28;20017;-77
2021/05/15 06:42:17;;;;;;;13.68;8.75;;;17.90;63.80;;;;;;5051200;28;20033;-82
2021/05/15 06:44:43;;;;;;;14.13;8.38;;;17.90;63.90;;;;;;5052083;28;20115;-89
2021/05/15 06:47:12;;;;;;;17.00;9.20;;;17.90;63.80;;;;;;5032246;28;20382;-87
2021/05/15 06:49:37;;;;;;;14.82;8.98;;;17.90;63.80;;;;;;5031644;28;20033;-87
2021/05/15 06:52:03;;;;;;;17.88;10.07;;;17.90;63.80;;;;;;5047530;28;20025;-83
2021/05/15 06:54:29;;;;;;;16.42;10.35;;;17.90;63.80;;;;;;5051526;28;20044;-87
2021/05/15 06:56:54;;;;;;;18.45;10.70;;;17.90;63.90;;;;;;5051450;28;20029;-84
2021/05/15 06:59:20;;;;;;;17.52;9.60;;;17.90;63.90;;;;;;5051342;28;20025;-84
2021/05/15 07:01:46;;;;;;;20.65;11.23;;;17.90;63.90;;;;;;5050774;28;20032;-88
2021/05/15 07:04:12;;;;;;;18.67;10.05;;;17.90;63.90;;;;;;5051388;28;20065;-84
2021/05/15 07:06:37;;;;;;;19.00;11.52;;;17.90;63.90;;;;;;5051025;28;20037;-81
2021/05/15 07:09:04;;;;;;;18.45;10.50;;;17.80;63.90;;;;;;5050092;28;20036;-84
2021/05/15 07:11:30;;;;;;;18.48;9.88;;;17.90;63.90;;;;;;5052326;28;20020;-84
2021/05/15 07:13:55;;;;;;;20.17;10.07;;;17.90;64.00;;;;;;5051038;28;20165;-79
2021/05/15 07:16:21;;;;;;;19.98;9.77;;;17.80;63.90;;;;;;5051986;28;20029;-87
2021/05/15 07:18:47;;;;;;;20.55;11.63;;;17.80;64.00;;;;;;5052360;28;20529;-82
2021/05/15 07:21:13;;;;;;;19.33;9.95;;;17.90;64.10;;;;;;5058024;28;20025;-89
2021/05/15 07:23:38;;;;;;;19.85;10.38;;;17.90;64.10;;;;;;5056436;28;20119;-88
2021/05/15 07:26:07;;;;;;;18.25;10.13;;;17.90;64.10;;;;;;5053162;28;20028;-82
2021/05/15 07:28:33;;;;;;;19.20;10.25;;;17.90;64.10;;;;;;5051471;28;20021;-80
2021/05/15 07:30:58;;;;;;;18.88;10.40;;;17.90;64.20;;;;;;5051366;28;20074;-80
2021/05/15 07:33:25;;;;;;;19.08;10.38;;;17.80;64.20;;;;;;5053566;28;20102;-77
2021/05/15 07:35:51;;;;;;;14.65;8.65;;;17.90;64.30;;;;;;5054442;28;20108;-78
2021/05/15 07:38:16;;;;;;;15.88;10.02;;;17.80;64.30;;;;;;5055664;28;20113;-73
2021/05/15 07:40:42;;;;;;;17.20;9.32;;;17.80;64.30;;;;;;5054735;28;20024;-85
2021/05/15 07:43:08;;;;;;;17.02;9.45;;;17.80;64.30;;;;;;5054391;28;20041;-86
2021/05/15 07:45:33;;;;;;;16.05;8.93;;;17.90;64.30;;;;;;5053286;28;20028;-85
2021/05/15 07:48:00;;;;;;;16.77;8.80;;;17.90;64.40;;;;;;5056967;28;20025;-86
2021/05/15 07:50:29;;;;;;;12.10;7.80;;;18.00;64.70;;;;;;5054713;28;20029;-88
2021/05/15 07:52:56;;;;;;;16.75;9.60;;;18.00;64.60;;;;;;5054563;28;20481;-87
2021/05/15 07:55:22;;;;;;;13.32;7.65;;;18.10;65.10;;;;;;5054527;28;20032;-81
2021/05/15 07:57:47;;;;;;;13.60;7.90;;;18.10;64.60;;;;;;5054526;28;20400;-83
2021/05/15 08:00:14;;;;;;;18.05;11.07;;;18.20;64.50;;;;;;5054411;28;20029;-78
2021/05/15 08:02:40;;;;;;;20.38;11.20;;;18.30;64.60;;;;;;5052961;28;20488;-73
2021/05/15 08:05:07;;;;;;;16.90;10.68;;;18.40;64.70;;;;;;5054630;28;20056;-77
2021/05/15 08:07:32;;;;;;;16.15;10.27;;;18.50;64.50;;;;;;5054159;28;20028;-72
2021/05/15 08:09:58;;;;;;;18.35;9.77;;;18.60;64.20;;;;;;5054433;28;20033;-83
2021/05/15 08:12:24;;;;;;;18.42;9.40;;;18.70;64.20;;;;;;5053921;28;20028;-84
2021/05/15 08:14:49;;;;;;;12.82;8.23;;;18.80;64.30;;;;;;5053980;28;20029;-79
2021/05/15 08:17:15;;;;;;;11.75;7.55;;;18.90;64.10;;;;;;5054094;28;20143;-82
2021/05/15 08:19:41;;;;;;;13.18;8.48;;;19.00;64.30;;;;;;5053902;28;20051;-83
2021/05/15 08:22:06;;;;;;;12.40;7.60;;;19.10;64.40;;;;;;5053806;28;20056;-83
2021/05/15 08:24:32;;;;;;;12.07;6.90;;;19.10;63.60;;;;;;5053946;28;20037;-84
2021/05/15 08:26:58;;;;;;;13.68;7.13;;;19.20;63.40;;;;;;5053955;28;20083;-80
2021/05/15 08:29:24;;;;;;;13.98;7.25;;;19.30;63.40;;;;;;5053312;28;20037;-76
2021/05/15 08:31:50;;;;;;;13.40;6.70;;;19.30;63.30;;;;;;5051320;28;20040;-73
2021/05/15 08:34:16;;;;;;;13.80;6.35;;;19.40;63.60;;;;;;5066481;28;20031;-78
2021/05/15 08:36:42;;;;;;;11.18;6.45;;;19.40;63.70;;;;;;5070415;28;20024;-77
2021/05/15 08:39:08;;;;;;;11.45;6.40;;;19.50;63.70;;;;;;5073682;28;20427;-78
2021/05/15 08:41:34;;;;;;;12.18;6.75;;;19.60;63.60;;;;;;5059325;28;20079;-86
2021/05/15 08:44:04;;;;;;;11.75;6.15;;;19.60;63.40;;;;;;5061700;28;20044;-77
2021/05/15 08:46:31;;;;;;;16.77;8.27;;;19.60;63.20;;;;;;5060802;28;20017;-87
2021/05/15 08:49:05;;;;;;;31.40;8.40;;;19.80;63.50;;;;;;5065832;28;20036;-82
2021/05/15 08:51:32;;;;;;;17.85;8.52;;;19.80;63.30;;;;;;5053509;28;20029;-83
2021/05/15 08:53:59;;;;;;;18.05;7.80;;;19.90;63.20;;;;;;5053101;28;20072;-89
2021/05/15 08:56:26;;;;;;;18.23;7.97;;;20.00;62.90;;;;;;5052786;28;20485;-76
2021/05/15 08:58:51;;;;;;;12.55;6.05;;;20.10;62.60;;;;;;5054968;28;20071;-82
2021/05/15 09:01:17;;;;;;;14.05;6.68;;;20.20;62.50;;;;;;5050505;28;20025;-81
2021/05/15 09:03:44;;;;;;;11.85;5.57;;;20.20;62.00;;;;;;5050976;28;20094;-74
2021/05/15 09:06:10;;;;;;;11.63;6.28;;;20.30;61.90;;;;;;5052559;28;20029;-76
2021/05/15 09:08:37;;;;;;;11.77;5.88;;;20.40;61.80;;;;;;5056343;28;20031;-74
2021/05/15 09:11:03;;;;;;;12.70;5.50;;;20.40;61.70;;;;;;5066282;28;20096;-74
2021/05/15 09:13:30;;;;;;;9.85;5.10;;;20.40;61.60;;;;;;5054197;28;20094;-74
2021/05/15 09:16:04;;;;;;;10.93;5.05;;;20.50;61.50;;;;;;5065205;28;20047;-78
2021/05/15 09:18:35;;;;;;;8.75;4.78;;;20.50;61.60;;;;;;5061870;28;20028;-73
2021/05/15 09:21:04;;;;;;;10.07;4.90;;;20.50;61.70;;;;;;5053003;28;20512;-73
2021/05/15 09:23:38;;;;;;;12.45;5.43;;;20.60;61.60;;;;;;5055558;28;20037;-75
2021/05/15 09:26:17;;;;;;;9.75;4.38;;;20.60;61.50;;;;;;5070971;28;20428;-76
2021/05/15 09:28:45;;;;;;;8.65;4.88;;;20.60;61.50;;;;;;5072631;28;20112;-73
2021/05/15 09:31:24;;;;;;;14.07;4.82;;;20.70;61.70;;;;;;5060917;28;20032;-74
2021/05/15 09:33:54;;;;;;;15.50;6.88;;;20.70;61.60;;;;;;5051671;28;20043;-74
2021/05/15 09:36:25;;;;;;;13.43;6.53;;;20.70;61.40;;;;;;5081654;28;20029;-74
2021/05/15 09:39:17;;;;;;;13.48;6.70;;;20.60;61.40;;;;;;5052054;28;20021;-73
2021/05/15 09:41:48;;;;;;;13.73;7.38;;;20.70;61.50;;;;;;5033197;28;20515;-77
2021/05/15 09:44:17;;;;;;;19.10;7.05;;;20.60;61.40;;;;;;5047903;28;20033;-74
2021/05/15 09:46:46;;;;;;;16.45;6.85;;;20.60;61.30;;;;;;5071360;28;20025;-73
2021/05/15 09:49:12;;;;;;;14.25;6.47;;;20.60;61.00;;;;;;5069153;28;20033;-72
2021/05/15 09:51:39;;;;;;;19.30;7.57;;;20.60;61.10;;;;;;5054506;28;20059;-89
2021/05/15 09:54:17;;;;;;;13.80;6.88;;;20.60;61.10;;;;;;5052282;28;20365;-84
2021/05/15 09:56:43;;;;;;;14.45;6.72;;;20.60;61.20;;;;;;5071140;28;20119;-82
2021/05/15 09:59:10;;;;;;;14.10;6.88;;;20.60;61.30;;;;;;5057181;28;20524;-79
2021/05/15 10:01:43;;;;;;;12.90;6.63;;;20.60;61.30;;;;;;5083607;28;20040;-82
2021/05/15 10:04:08;;;;;;;14.68;6.38;;;20.50;61.20;;;;;;5060524;28;20074;-80
2021/05/15 10:06:35;;;;;;;16.95;6.22;;;20.60;61.20;;;;;;5060381;28;20044;-73
2021/05/15 10:09:00;;;;;;;16.13;7.38;;;20.60;61.30;;;;;;5064483;28;20027;-78
2021/05/15 10:11:26;;;;;;;18.27;6.93;;;20.50;61.20;;;;;;5070812;28;20028;-81
2021/05/15 10:13:52;;;;;;;15.18;6.40;;;20.50;61.20;;;;;;5070451;28;20028;-76
2021/05/15 10:16:19;;;;;;;15.93;6.78;;;20.50;61.20;;;;;;5053762;28;20056;-79
2021/05/15 10:18:45;;;;;;;15.00;6.32;;;20.50;61.40;;;;;;5051313;28;20096;-79
2021/05/15 10:21:11;;;;;;;16.02;6.30;;;20.50;61.30;;;;;;5050657;28;20117;-78
2021/05/15 10:23:42;;;;;;;15.48;6.82;;;20.50;61.50;;;;;;5062749;28;20890;-81
2021/05/15 10:26:24;;;;;;;16.25;6.20;;;20.50;61.00;;;;;;5057065;28;20021;-78
2021/05/15 10:29:01;;;;;;;15.23;6.88;;;20.50;61.50;;;;;;5048938;28;20124;-72
2021/05/15 10:31:39;;;;;;;11.48;5.13;;;20.40;61.60;;;;;;5052191;28;20076;-74
2021/05/15 10:34:05;;;;;;;13.00;5.50;;;20.40;61.40;;;;;;5047268;28;20021;-77
2021/05/15 10:36:31;;;;;;;14.73;5.97;;;20.40;61.30;;;;;;5050344;28;20029;-75
2021/05/15 10:38:56;;;;;;;15.73;6.07;;;20.40;62.00;;;;;;5049320;28;20025;-86
2021/05/15 10:41:26;;;;;;;12.05;5.20;;;20.40;61.30;;;;;;5050570;28;20108;-81
2021/05/15 10:43:56;;;;;;;10.27;4.70;;;20.40;61.30;;;;;;5061368;28;20086;-79
2021/05/15 10:46:25;;;;;;;12.95;5.25;;;20.40;61.50;;;;;;5066480;28;20021;-80
2021/05/15 10:49:07;;;;;;;10.85;5.18;;;20.30;61.70;;;;;;5053058;28;20090;-84
2021/05/15 10:51:44;;;;;;;11.38;6.10;;;20.30;62.20;;;;;;5059347;28;20025;-85
2021/05/15 10:54:12;;;;;;;13.70;6.00;;;20.30;62.40;;;;;;5062505;28;20033;-81
2021/05/15 10:56:38;;;;;;;10.73;5.22;;;20.20;62.80;;;;;;5050444;28;20104;-77
2021/05/15 10:59:05;;;;;;;13.30;5.93;;;20.20;63.20;;;;;;5069766;28;20033;-80
2021/05/15 11:01:49;;;;;;;15.70;6.47;;;20.20;63.90;;;;;;5064305;28;20032;-77
2021/05/15 11:04:24;;;;;;;14.55;5.95;;;20.20;63.80;;;;;;5061230;28;20032;-77
2021/05/15 11:07:08;;;;;;;18.63;6.13;;;20.20;64.10;;;;;;5070706;28;20037;-76
2021/05/15 11:09:52;;;;;;;21.73;6.93;;;20.20;64.10;;;;;;5063159;28;20119;-80
2021/05/15 11:12:18;;;;;;;13.60;6.15;;;20.20;64.80;;;;;;5053294;28;20087;-78
2021/05/15 11:14:47;;;;;;;15.88;5.97;;;20.20;64.50;;;;;;5049738;28;20495;-76
2021/05/15 11:17:19;;;;;;;15.23;6.40;;;20.10;64.20;;;;;;5049873;28;20009;-73
2021/05/15 11:20:10;;;;;;;15.95;5.20;;;20.10;64.50;;;;;;5049381;28;20041;-80
2021/05/15 11:22:38;;;;;;;17.15;5.85;;;20.10;64.50;;;;;;5047398;28;20013;-81
2021/05/15 11:25:27;;;;;;;14.85;5.45;;;20.10;64.90;;;;;;5049152;28;20037;-77
2021/05/15 11:27:53;;;;;;;14.48;6.82;;;20.10;64.90;;;;;;5049491;28;20019;-76
2021/05/15 11:30:42;;;;;;;15.00;5.53;;;20.10;65.70;;;;;;5047722;28;20037;-74
2021/05/15 11:33:13;;;;;;;13.38;5.38;;;20.10;65.70;;;;;;5050285;28;20039;-74
2021/05/15 11:35:43;;;;;;;12.93;5.53;;;20.10;66.10;;;;;;5044911;28;20021;-75
2021/05/15 11:38:19;;;;;;;8.90;4.57;;;20.10;67.50;;;;;;5049209;28;20493;-73
2021/05/15 11:40:44;;;;;;;12.57;5.60;;;20.10;66.30;;;;;;5050076;28;20040;-76
2021/05/15 11:43:10;;;;;;;13.43;5.47;;;20.10;66.30;;;;;;5048759;28;20029;-76
2021/05/15 11:45:37;;;;;;;12.63;5.22;;;20.10;66.80;;;;;;5050161;28;20216;-74
2021/05/15 11:48:24;;;;;;;13.15;6.00;;;20.00;66.40;;;;;;5051006;28;20021;-75
2021/05/15 11:51:17;;;;;;;11.95;5.00;;;20.00;66.40;;;;;;5047053;28;20044;-74
2021/05/15 11:53:57;;;;;;;12.25;5.20;;;20.00;66.50;;;;;;5049609;28;20070;-73
2021/05/15 11:56:28;;;;;;;10.75;5.90;;;20.00;66.70;;;;;;5048636;28;20020;-72
2021/05/15 11:58:58;;;;;;;10.05;4.88;;;20.00;66.90;;;;;;5045660;28;20538;-72
2021/05/15 12:01:30;;;;;;;11.90;5.20;;;20.00;66.90;;;;;;5046471;28;20021;-72
2021/05/15 12:04:06;;;;;;;12.82;5.03;;;20.20;66.50;;;;;;5046882;28;20041;-81
2021/05/15 12:06:33;;;;;;;11.90;4.93;;;20.10;66.00;;;;;;5044905;28;20025;-78
2021/05/15 12:08:59;;;;;;;11.70;4.57;;;20.10;66.10;;;;;;5047099;28;20092;-80
2021/05/15 12:11:26;;;;;;;10.27;4.53;;;20.10;66.10;;;;;;5048896;28;20473;-81
2021/05/15 12:13:53;;;;;;;8.43;4.75;;;20.10;65.80;;;;;;5048568;28;20029;-79
2021/05/15 12:16:22;;;;;;;10.18;4.07;;;20.20;65.80;;;;;;5048299;28;20028;-74
2021/05/15 12:18:49;;;;;;;11.75;4.53;;;20.20;65.50;;;;;;5049944;28;20446;-75
2021/05/15 12:21:15;;;;;;;10.75;4.68;;;20.20;65.60;;;;;;5052309;28;20044;-73
2021/05/15 12:23:42;;;;;;;7.90;4.43;;;20.20;65.30;;;;;;5052397;28;21426;-72
2021/05/15 12:26:10;;;;;;;10.65;3.83;;;20.20;65.50;;;;;;5052590;28;20701;-73
2021/05/15 12:28:49;;;;;;;9.65;4.18;;;20.30;66.10;;;;;;5051578;28;20035;-83
2021/05/15 12:31:28;;;;;;;8.43;3.97;;;20.30;66.30;;;;;;5053188;28;20032;-78
2021/05/15 12:33:58;;;;;;;10.20;3.75;;;20.20;65.40;;;;;;5050313;28;20053;-80
2021/05/15 12:36:30;;;;;;;9.65;3.83;;;20.20;65.60;;;;;;5051206;28;20398;-80
2021/05/15 12:38:56;;;;;;;6.20;3.55;;;20.20;66.50;;;;;;5050804;28;20021;-79
2021/05/15 12:41:29;;;;;;;9.00;4.10;;;20.20;66.20;;;;;;5053791;28;20056;-77
2021/05/15 12:44:06;;;;;;;6.75;3.67;;;20.30;66.30;;;;;;5064466;28;20075;-80